Terminal Aerodrome Forecast
Issued by NWS

Home | Current Version | Previous Version | Text Only | Print | Product List | Glossary On
Versions: 1 2 3 4 5 6 7 8 9 10 11 12
000
FTUS43 KDLH 241700
TAFBRD
TAF
KBRD 241721Z 2418/2518 26004KT P6SM OVC006
     FM242000 VRB03KT P6SM OVC009
     FM250800 22006KT P6SM -SN OVC007
     FM251300 VRB03KT 6SM -FZDZ BR OVC008=

USA.gov is the U.S. government's official web portal to all federal, state and local government web resources and services.